Time;durP1;ratioP1;P1;durP2;ratioP2;P2;SDS_P1;SDS_P2;PMS_P1;PMS_P2;Temp;Humidity;BMP_temperature;BMP_pressure;BME280_temperature;BME280_humidity;BME280_pressure;Samples;Min_cycle;Max_cycle;Signal;HPM_P1;HPM_P2
2021/06/11 00:00:50;;;;;;;2.47;1.50;;;;;;;;;;5109120;28;20036;-65
2021/06/11 00:03:16;;;;;;;1.85;1.33;;;;;;;;;;5098210;28;20044;-65
2021/06/11 00:05:41;;;;;;;3.28;1.48;;;;;;;;;;5110802;28;20090;-65
2021/06/11 00:08:07;;;;;;;3.00;1.60;;;;;;;;;;5102836;28;20061;-65
2021/06/11 00:10:32;;;;;;;1.88;1.30;;;;;;;;;;5103545;28;20076;-65
2021/06/11 00:12:58;;;;;;;2.45;1.40;;;;;;;;;;5109892;28;20138;-65
2021/06/11 00:15:25;;;;;;;2.10;1.33;;;;;;;;;;5102812;28;20082;-65
2021/06/11 00:17:50;;;;;;;2.22;1.40;;;;;;;;;;5114964;28;20024;-66
2021/06/11 00:20:16;;;;;;;2.83;1.50;;;;;;;;;;5114593;28;20046;-66
2021/06/11 00:22:41;;;;;;;1.88;1.42;;;;;;;;;;5114083;28;20027;-66
2021/06/11 00:25:08;;;;;;;2.53;1.42;;;;;;;;;;5114343;28;20069;-65
2021/06/11 00:27:33;;;;;;;3.47;1.48;;;;;;;;;;5114914;28;20023;-65
2021/06/11 00:29:59;;;;;;;2.75;1.35;;;;;;;;;;5114567;28;20510;-65
2021/06/11 00:32:24;;;;;;;2.53;1.23;;;;;;;;;;5114516;28;20110;-66
2021/06/11 00:34:49;;;;;;;2.33;1.23;;;;;;;;;;5113671;28;20031;-65
2021/06/11 00:37:15;;;;;;;3.53;1.50;;;;;;;;;;5114700;28;20428;-66
2021/06/11 00:39:40;;;;;;;2.83;1.45;;;;;;;;;;5114196;28;20448;-65
2021/06/11 00:42:06;;;;;;;2.72;1.30;;;;;;;;;;5114720;28;20027;-65
2021/06/11 00:44:31;;;;;;;2.35;1.40;;;;;;;;;;5114581;28;20430;-66
2021/06/11 00:46:56;;;;;;;2.05;1.63;;;;;;;;;;5114364;28;20022;-66
2021/06/11 00:49:21;;;;;;;1.60;1.15;;;;;;;;;;5114418;28;20073;-66
2021/06/11 00:51:47;;;;;;;2.65;1.00;;;;;;;;;;5113846;28;20046;-66
2021/06/11 00:54:13;;;;;;;2.08;1.33;;;;;;;;;;5113934;28;20073;-66
2021/06/11 00:56:38;;;;;;;2.90;1.13;;;;;;;;;;5114073;28;20068;-66
2021/06/11 00:59:04;;;;;;;1.25;0.88;;;;;;;;;;5113909;28;20070;-66
2021/06/11 01:01:29;;;;;;;3.47;1.30;;;;;;;;;;5114009;28;20055;-66
2021/06/11 01:03:54;;;;;;;2.10;1.25;;;;;;;;;;5113903;28;20023;-66
2021/06/11 01:06:21;;;;;;;2.30;1.20;;;;;;;;;;5113809;28;20036;-66
2021/06/11 01:08:46;;;;;;;2.25;1.42;;;;;;;;;;5113926;28;20027;-65
2021/06/11 01:11:12;;;;;;;3.55;1.20;;;;;;;;;;5114029;28;20101;-65
2021/06/11 01:13:38;;;;;;;3.55;1.20;;;;;;;;;;5113916;28;20043;-66
2021/06/11 01:16:04;;;;;;;2.70;1.00;;;;;;;;;;5113619;28;20020;-66
2021/06/11 01:18:29;;;;;;;0.77;0.75;;;;;;;;;;5113920;28;20061;-65
2021/06/11 01:20:54;;;;;;;1.92;1.00;;;;;;;;;;5113322;28;20066;-66
2021/06/11 01:23:25;;;;;;;4.05;1.60;;;;;;;;;;5113848;28;20094;-65
2021/06/11 01:25:52;;;;;;;3.13;1.50;;;;;;;;;;5113675;28;20031;-66
2021/06/11 01:28:18;;;;;;;1.42;1.15;;;;;;;;;;5112755;28;20118;-66
2021/06/11 01:30:43;;;;;;;2.92;1.58;;;;;;;;;;5113901;28;20153;-66
2021/06/11 01:33:10;;;;;;;3.50;2.10;;;;;;;;;;5113346;28;20054;-65
2021/06/11 01:35:44;;;;;;;3.47;1.90;;;;;;;;;;5112393;28;20035;-66
2021/06/11 01:38:13;;;;;;;3.90;2.20;;;;;;;;;;5113233;28;20353;-65
2021/06/11 01:40:40;;;;;;;5.70;2.55;;;;;;;;;;5113755;28;20114;-66
2021/06/11 01:43:05;;;;;;;5.28;2.97;;;;;;;;;;5113310;28;20015;-65
2021/06/11 01:45:31;;;;;;;4.05;2.58;;;;;;;;;;5113800;28;20061;-66
2021/06/11 01:47:59;;;;;;;4.10;2.78;;;;;;;;;;5112827;28;20036;-65
2021/06/11 01:50:27;;;;;;;4.68;2.95;;;;;;;;;;5113470;28;20049;-65
2021/06/11 01:52:53;;;;;;;5.07;3.13;;;;;;;;;;5113165;28;20089;-65
2021/06/11 01:55:19;;;;;;;5.07;2.90;;;;;;;;;;5113208;28;20040;-66
2021/06/11 01:57:45;;;;;;;5.00;3.08;;;;;;;;;;5113622;28;20019;-65
2021/06/11 02:00:11;;;;;;;5.25;3.40;;;;;;;;;;5112175;28;20134;-66
2021/06/11 02:02:36;;;;;;;5.97;3.40;;;;;;;;;;5112660;28;20035;-66
2021/06/11 02:05:03;;;;;;;5.75;3.60;;;;;;;;;;5112707;28;20046;-65
2021/06/11 02:07:29;;;;;;;5.68;3.35;;;;;;;;;;5113298;28;20117;-66
2021/06/11 02:09:55;;;;;;;4.72;2.90;;;;;;;;;;5112908;28;20039;-66
2021/06/11 02:12:20;;;;;;;6.85;3.30;;;;;;;;;;5113129;28;20039;-66
2021/06/11 02:14:46;;;;;;;4.95;3.13;;;;;;;;;;5113001;28;20113;-65
2021/06/11 02:17:11;;;;;;;5.57;3.13;;;;;;;;;;5113259;28;20146;-65
2021/06/11 02:19:38;;;;;;;6.57;3.17;;;;;;;;;;5095125;28;20024;-65
2021/06/11 02:22:06;;;;;;;5.85;2.60;;;;;;;;;;5112938;28;20460;-65
2021/06/11 02:24:32;;;;;;;7.40;2.60;;;;;;;;;;5113262;28;20414;-66
2021/06/11 02:26:57;;;;;;;3.38;2.17;;;;;;;;;;5112781;28;20015;-66
2021/06/11 02:29:23;;;;;;;3.85;2.28;;;;;;;;;;5112913;28;20028;-65
2021/06/11 02:31:48;;;;;;;4.85;2.22;;;;;;;;;;5113215;28;20036;-65
2021/06/11 02:34:14;;;;;;;5.10;2.60;;;;;;;;;;5112762;28;20090;-65
2021/06/11 02:36:39;;;;;;;4.40;2.38;;;;;;;;;;5112952;28;20421;-66
2021/06/11 02:39:05;;;;;;;2.88;1.80;;;;;;;;;;5112884;28;20059;-66
2021/06/11 02:41:32;;;;;;;7.65;2.10;;;;;;;;;;5112994;28;20361;-65
2021/06/11 02:43:58;;;;;;;3.25;1.83;;;;;;;;;;5112357;28;20098;-66
2021/06/11 02:46:38;;;;;;;4.05;2.33;;;;;;;;;;5114007;28;20119;-65
2021/06/11 02:49:08;;;;;;;2.67;1.75;;;;;;;;;;5116743;28;20032;-65
2021/06/11 02:51:42;;;;;;;5.47;1.95;;;;;;;;;;5106652;28;20039;-65
2021/06/11 02:54:11;;;;;;;3.10;1.83;;;;;;;;;;5116570;28;20039;-65
2021/06/11 02:56:41;;;;;;;3.10;2.03;;;;;;;;;;5116285;28;20588;-66
2021/06/11 02:59:18;;;;;;;6.00;1.75;;;;;;;;;;5116494;28;20103;-65
2021/06/11 03:01:50;;;;;;;2.97;1.60;;;;;;;;;;5115883;28;20056;-65
2021/06/11 03:04:15;;;;;;;3.50;1.80;;;;;;;;;;5115922;28;20028;-66
2021/06/11 03:06:43;;;;;;;4.00;1.48;;;;;;;;;;5116310;28;20027;-66
2021/06/11 03:09:10;;;;;;;2.65;1.45;;;;;;;;;;5115921;28;20028;-65
2021/06/11 03:11:41;;;;;;;3.95;1.73;;;;;;;;;;5116197;28;20054;-66
2021/06/11 03:14:07;;;;;;;6.07;1.80;;;;;;;;;;5116366;28;20031;-66
2021/06/11 03:16:33;;;;;;;2.25;1.50;;;;;;;;;;5115829;28;20055;-65
2021/06/11 03:19:01;;;;;;;3.97;1.70;;;;;;;;;;5115743;28;20039;-65
2021/06/11 03:21:37;;;;;;;3.92;1.73;;;;;;;;;;5115749;28;20092;-66
2021/06/11 03:24:11;;;;;;;2.95;1.55;;;;;;;;;;5115950;28;20032;-66
2021/06/11 03:26:59;;;;;;;5.57;1.95;;;;;;;;;;5116196;28;20031;-65
2021/06/11 03:29:45;;;;;;;3.03;1.70;;;;;;;;;;5115524;28;20383;-65
2021/06/11 03:32:18;;;;;;;2.75;1.88;;;;;;;;;;5114597;28;20142;-65
2021/06/11 03:34:44;;;;;;;3.08;2.00;;;;;;;;;;5115355;28;20031;-65
2021/06/11 03:37:16;;;;;;;3.88;2.10;;;;;;;;;;5115977;28;20109;-66
2021/06/11 03:39:44;;;;;;;4.25;2.40;;;;;;;;;;5115660;28;20020;-66
2021/06/11 03:42:10;;;;;;;4.97;2.20;;;;;;;;;;5115637;28;20379;-66
2021/06/11 03:44:39;;;;;;;6.45;2.20;;;;;;;;;;5115557;28;20028;-66
2021/06/11 03:47:05;;;;;;;3.78;2.28;;;;;;;;;;5115609;28;20081;-66
2021/06/11 03:49:31;;;;;;;6.15;2.83;;;;;;;;;;5115176;28;20464;-65
2021/06/11 03:51:57;;;;;;;5.05;2.38;;;;;;;;;;5115433;28;20046;-65
2021/06/11 03:54:24;;;;;;;4.70;2.25;;;;;;;;;;5114924;28;20031;-65
2021/06/11 03:56:51;;;;;;;4.93;2.33;;;;;;;;;;5115517;28;20035;-66
2021/06/11 03:59:18;;;;;;;4.63;2.20;;;;;;;;;;5114645;28;20383;-65
2021/06/11 04:01:45;;;;;;;5.30;2.50;;;;;;;;;;5114768;28;20019;-65
2021/06/11 04:04:11;;;;;;;5.53;2.50;;;;;;;;;;5114972;28;20490;-65
2021/06/11 04:06:37;;;;;;;5.00;2.50;;;;;;;;;;5115464;28;20031;-66
2021/06/11 04:09:10;;;;;;;3.30;2.42;;;;;;;;;;5114665;28;20032;-65
2021/06/11 04:11:40;;;;;;;6.10;2.70;;;;;;;;;;5114386;28;20179;-66
2021/06/11 04:14:06;;;;;;;5.10;2.45;;;;;;;;;;5115493;28;20044;-66
2021/06/11 04:16:38;;;;;;;5.97;2.80;;;;;;;;;;5114408;28;20022;-66
2021/06/11 04:19:04;;;;;;;6.18;2.83;;;;;;;;;;5113932;28;20039;-66
2021/06/11 04:21:30;;;;;;;7.95;2.60;;;;;;;;;;5114852;28;20361;-66
2021/06/11 04:23:59;;;;;;;8.30;2.70;;;;;;;;;;5114014;28;20019;-66
2021/06/11 04:26:25;;;;;;;5.05;2.80;;;;;;;;;;5114517;28;20541;-66
2021/06/11 04:28:51;;;;;;;5.25;2.47;;;;;;;;;;5113468;28;20035;-66
2021/06/11 04:31:17;;;;;;;4.53;2.25;;;;;;;;;;5114811;28;20027;-65
2021/06/11 04:33:43;;;;;;;5.15;2.50;;;;;;;;;;5113927;28;20081;-66
2021/06/11 04:36:09;;;;;;;6.32;2.95;;;;;;;;;;5114626;28;20059;-66
2021/06/11 04:39:04;;;;;;;6.75;2.50;;;;;;;;;;5114391;28;20024;-66
2021/06/11 04:41:29;;;;;;;5.55;2.05;;;;;;;;;;5092439;28;20491;-66
2021/06/11 04:43:58;;;;;;;6.43;2.42;;;;;;;;;;5114355;28;20084;-66
2021/06/11 04:46:23;;;;;;;5.35;2.22;;;;;;;;;;5114330;28;20093;-65
2021/06/11 04:48:49;;;;;;;5.93;2.60;;;;;;;;;;5113735;28;20495;-66
2021/06/11 04:51:14;;;;;;;5.07;2.58;;;;;;;;;;5113540;28;20039;-66
2021/06/11 04:53:40;;;;;;;4.18;2.40;;;;;;;;;;5113966;28;20106;-65
2021/06/11 04:56:08;;;;;;;5.22;2.10;;;;;;;;;;5114134;28;20028;-66
2021/06/11 04:58:37;;;;;;;5.43;2.88;;;;;;;;;;5113844;28;20032;-65
2021/06/11 05:01:03;;;;;;;7.03;2.80;;;;;;;;;;5114031;28;20069;-66
2021/06/11 05:03:28;;;;;;;7.68;2.63;;;;;;;;;;5113809;28;20534;-65
2021/06/11 05:05:53;;;;;;;4.55;3.20;;;;;;;;;;5113872;28;20169;-66
2021/06/11 05:08:18;;;;;;;4.07;2.08;;;;;;;;;;5114012;28;20451;-65
2021/06/11 05:10:44;;;;;;;8.50;3.10;;;;;;;;;;5113623;28;20172;-65
2021/06/11 05:13:09;;;;;;;7.97;2.85;;;;;;;;;;5113605;28;20062;-66
2021/06/11 05:15:35;;;;;;;6.03;3.00;;;;;;;;;;5113922;28;20015;-65
2021/06/11 05:18:06;;;;;;;6.63;2.78;;;;;;;;;;5114195;28;20031;-65
2021/06/11 05:20:32;;;;;;;4.95;3.00;;;;;;;;;;5095504;28;20032;-66
2021/06/11 05:22:57;;;;;;;6.57;3.08;;;;;;;;;;5113859;28;20483;-65
2021/06/11 05:25:23;;;;;;;7.65;3.10;;;;;;;;;;5113577;28;20028;-65
2021/06/11 05:27:48;;;;;;;4.10;2.70;;;;;;;;;;5113721;28;20085;-66
2021/06/11 05:30:14;;;;;;;4.65;3.03;;;;;;;;;;5112838;28;20438;-66
2021/06/11 05:32:40;;;;;;;5.05;2.60;;;;;;;;;;5113541;28;20031;-65
2021/06/11 05:35:05;;;;;;;7.10;3.25;;;;;;;;;;5113320;28;20070;-65
2021/06/11 05:37:31;;;;;;;4.43;2.45;;;;;;;;;;5113593;28;20422;-65
2021/06/11 05:39:56;;;;;;;4.80;2.88;;;;;;;;;;5113355;28;20027;-65
2021/06/11 05:42:21;;;;;;;6.85;2.78;;;;;;;;;;5113835;28;20038;-66
2021/06/11 05:44:46;;;;;;;4.28;2.70;;;;;;;;;;5113324;28;20043;-65
2021/06/11 05:47:12;;;;;;;4.63;3.08;;;;;;;;;;5113459;28;20034;-66
2021/06/11 05:49:37;;;;;;;4.93;2.42;;;;;;;;;;5113171;28;20050;-65
2021/06/11 05:52:03;;;;;;;4.50;2.67;;;;;;;;;;5113339;28;20028;-66
2021/06/11 05:54:28;;;;;;;4.40;2.67;;;;;;;;;;5113401;28;20047;-66
2021/06/11 05:56:56;;;;;;;6.07;2.65;;;;;;;;;;5113572;28;20076;-66
2021/06/11 05:59:21;;;;;;;6.10;2.85;;;;;;;;;;5113246;28;20015;-66
2021/06/11 06:01:47;;;;;;;6.32;2.72;;;;;;;;;;5113308;28;20027;-66
2021/06/11 06:04:12;;;;;;;6.10;2.80;;;;;;;;;;5113134;28;20032;-66
2021/06/11 06:06:37;;;;;;;5.43;2.70;;;;;;;;;;5113210;28;20440;-66
2021/06/11 06:09:02;;;;;;;4.90;2.70;;;;;;;;;;5113419;28;20100;-66
2021/06/11 06:11:28;;;;;;;5.18;2.58;;;;;;;;;;5113262;28;20126;-65
2021/06/11 06:13:53;;;;;;;7.60;2.47;;;;;;;;;;5113318;28;20039;-65
2021/06/11 06:16:18;;;;;;;4.43;2.50;;;;;;;;;;5112890;28;20035;-66
2021/06/11 06:18:44;;;;;;;4.45;2.22;;;;;;;;;;5113081;28;20081;-66
2021/06/11 06:21:09;;;;;;;4.60;2.22;;;;;;;;;;5113579;28;20026;-66
2021/06/11 06:23:35;;;;;;;4.30;2.50;;;;;;;;;;5117196;28;20047;-66
2021/06/11 06:26:00;;;;;;;5.70;2.53;;;;;;;;;;5116970;28;20114;-66
2021/06/11 06:28:25;;;;;;;4.55;2.63;;;;;;;;;;5116168;28;20383;-66
2021/06/11 06:30:51;;;;;;;5.35;2.67;;;;;;;;;;5116848;28;20028;-66
2021/06/11 06:33:16;;;;;;;7.82;3.00;;;;;;;;;;5116864;28;20472;-66
2021/06/11 06:35:41;;;;;;;8.50;3.47;;;;;;;;;;5115920;28;20417;-66
2021/06/11 06:38:08;;;;;;;6.53;2.45;;;;;;;;;;5116139;28;20039;-65
2021/06/11 06:40:34;;;;;;;5.50;2.50;;;;;;;;;;5116601;28;20118;-66
2021/06/11 06:42:59;;;;;;;3.38;2.53;;;;;;;;;;5116746;28;20108;-66
2021/06/11 06:45:25;;;;;;;3.78;2.53;;;;;;;;;;5116891;28;20364;-66
2021/06/11 06:47:50;;;;;;;6.55;2.15;;;;;;;;;;5116680;28;20043;-66
2021/06/11 06:50:17;;;;;;;5.85;2.28;;;;;;;;;;5116408;28;20088;-66
2021/06/11 06:52:42;;;;;;;5.13;1.95;;;;;;;;;;5116516;28;20118;-66
2021/06/11 06:55:08;;;;;;;5.03;2.38;;;;;;;;;;5116479;28;20143;-66
2021/06/11 06:57:33;;;;;;;7.40;2.25;;;;;;;;;;5116487;28;20047;-66
2021/06/11 06:59:59;;;;;;;6.43;2.28;;;;;;;;;;5116108;28;20020;-66
2021/06/11 07:02:24;;;;;;;4.88;2.20;;;;;;;;;;5116378;28;20039;-66
2021/06/11 07:04:50;;;;;;;5.00;2.88;;;;;;;;;;5115755;28;20043;-66
2021/06/11 07:07:16;;;;;;;3.35;2.15;;;;;;;;;;5116382;28;20023;-66
2021/06/11 07:09:42;;;;;;;5.78;1.88;;;;;;;;;;5115730;28;20686;-66
2021/06/11 07:12:07;;;;;;;5.88;2.30;;;;;;;;;;5116113;28;20084;-66
2021/06/11 07:14:32;;;;;;;3.90;2.03;;;;;;;;;;5116037;28;20539;-66
2021/06/11 07:16:58;;;;;;;5.00;2.10;;;;;;;;;;5116298;28;20031;-65
2021/06/11 07:19:23;;;;;;;6.90;1.90;;;;;;;;;;5116004;28;20016;-66
2021/06/11 07:21:48;;;;;;;5.43;2.58;;;;;;;;;;5115163;28;20019;-65
2021/06/11 07:24:14;;;;;;;6.95;1.73;;;;;;;;;;5093887;28;20063;-66
2021/06/11 07:26:39;;;;;;;3.28;2.00;;;;;;;;;;5106317;28;20448;-66
2021/06/11 07:29:04;;;;;;;2.33;1.50;;;;;;;;;;5094583;28;20031;-66
2021/06/11 07:31:30;;;;;;;4.15;1.88;;;;;;;;;;5106908;28;20039;-65
2021/06/11 07:33:56;;;;;;;3.25;1.90;;;;;;;;;;5105415;28;20047;-66
2021/06/11 07:36:21;;;;;;;3.70;2.20;;;;;;;;;;5094551;28;20113;-64
2021/06/11 07:38:46;;;;;;;2.58;1.40;;;;;;;;;;5089576;28;20032;-66
2021/06/11 07:41:11;;;;;;;4.80;1.55;;;;;;;;;;5091214;28;20478;-65
2021/06/11 07:43:37;;;;;;;3.63;1.50;;;;;;;;;;5111464;28;20024;-66
2021/06/11 07:46:02;;;;;;;2.17;1.50;;;;;;;;;;5110765;28;20035;-66
2021/06/11 07:48:27;;;;;;;2.75;1.33;;;;;;;;;;5109395;28;20023;-65
2021/06/11 07:50:53;;;;;;;3.40;1.50;;;;;;;;;;5105717;28;20089;-66
2021/06/11 07:53:23;;;;;;;1.75;1.13;;;;;;;;;;5111190;28;20525;-66
2021/06/11 07:55:48;;;;;;;2.88;1.70;;;;;;;;;;5110495;28;20106;-66
2021/06/11 07:58:13;;;;;;;2.80;1.10;;;;;;;;;;5098646;28;20119;-66
2021/06/11 08:00:39;;;;;;;2.60;1.10;;;;;;;;;;5111123;28;20463;-66
2021/06/11 08:03:04;;;;;;;2.90;0.98;;;;;;;;;;5112565;28;20031;-65
2021/06/11 08:05:29;;;;;;;1.35;0.90;;;;;;;;;;5112404;28;20020;-66
2021/06/11 08:07:55;;;;;;;2.05;1.00;;;;;;;;;;5111931;28;20395;-66
2021/06/11 08:10:21;;;;;;;2.13;0.90;;;;;;;;;;5110854;28;20046;-66
2021/06/11 08:12:46;;;;;;;2.78;1.00;;;;;;;;;;5111358;28;20126;-66
2021/06/11 08:15:12;;;;;;;1.88;0.80;;;;;;;;;;5111772;28;20135;-65
2021/06/11 08:17:37;;;;;;;1.20;0.85;;;;;;;;;;5111641;28;20023;-65
2021/06/11 08:20:07;;;;;;;2.50;1.20;;;;;;;;;;5112130;28;20031;-66
2021/06/11 08:22:32;;;;;;;1.73;0.85;;;;;;;;;;5111537;28;20035;-66
2021/06/11 08:24:57;;;;;;;1.35;0.80;;;;;;;;;;5112155;28;20071;-66
2021/06/11 08:27:23;;;;;;;1.35;0.98;;;;;;;;;;5093177;28;20031;-66
2021/06/11 08:29:48;;;;;;;1.10;0.90;;;;;;;;;;5107750;28;20058;-65
2021/06/11 08:32:13;;;;;;;2.65;1.45;;;;;;;;;;5111076;28;20031;-66
2021/06/11 08:34:40;;;;;;;2.28;1.10;;;;;;;;;;5111401;28;20081;-66
2021/06/11 08:37:06;;;;;;;1.73;1.38;;;;;;;;;;5107742;28;20053;-66
2021/06/11 08:39:32;;;;;;;2.25;0.85;;;;;;;;;;5100773;28;20468;-66
2021/06/11 08:41:57;;;;;;;1.20;0.80;;;;;;;;;;5106869;28;20035;-66
2021/06/11 08:44:25;;;;;;;1.30;1.15;;;;;;;;;;5093370;28;20020;-66
2021/06/11 08:46:51;;;;;;;2.30;1.10;;;;;;;;;;5091521;28;20130;-66
2021/06/11 08:49:17;;;;;;;2.50;0.93;;;;;;;;;;5101907;28;20028;-65
2021/06/11 08:51:44;;;;;;;2.97;0.95;;;;;;;;;;5094213;28;20514;-66
2021/06/11 08:54:09;;;;;;;1.20;0.77;;;;;;;;;;5090892;28;20379;-66
2021/06/11 08:56:35;;;;;;;1.67;0.90;;;;;;;;;;5089569;28;20036;-66
2021/06/11 08:59:00;;;;;;;6.72;1.17;;;;;;;;;;5088268;28;20032;-66
2021/06/11 09:01:25;;;;;;;1.65;0.90;;;;;;;;;;5088475;28;20030;-66
2021/06/11 09:03:54;;;;;;;1.10;0.70;;;;;;;;;;5089399;28;20553;-65
2021/06/11 09:06:20;;;;;;;0.60;0.60;;;;;;;;;;5102313;28;20081;-66
2021/06/11 09:08:53;;;;;;;0.85;0.50;;;;;;;;;;5097479;28;20027;-66
2021/06/11 09:11:20;;;;;;;1.77;0.57;;;;;;;;;;5092668;28;20052;-66
2021/06/11 09:13:54;;;;;;;1.15;0.70;;;;;;;;;;5090147;28;20036;-66
2021/06/11 09:16:19;;;;;;;0.63;0.55;;;;;;;;;;5089027;28;20035;-65
2021/06/11 09:18:45;;;;;;;1.48;0.50;;;;;;;;;;5105002;28;20465;-66
2021/06/11 09:21:28;;;;;;;0.70;0.50;;;;;;;;;;5108640;28;20024;-66
2021/06/11 09:24:24;;;;;;;0.80;0.60;;;;;;;;;;5109029;28;20032;-66
2021/06/11 09:27:02;;;;;;;0.50;0.50;;;;;;;;;;5091886;28;20052;-66
2021/06/11 09:29:29;;;;;;;1.35;1.00;;;;;;;;;;5091337;28;20028;-65
2021/06/11 09:32:08;;;;;;;1.05;1.00;;;;;;;;;;5106850;28;20176;-67
2021/06/11 09:34:34;;;;;;;0.77;0.70;;;;;;;;;;5088384;28;20103;-66
2021/06/11 09:37:19;;;;;;;0.57;0.55;;;;;;;;;;5102938;28;20503;-66
2021/06/11 09:39:55;;;;;;;1.20;0.55;;;;;;;;;;5088760;28;20051;-67
2021/06/11 09:42:27;;;;;;;0.65;0.40;;;;;;;;;;5088485;28;20043;-67
2021/06/11 09:44:57;;;;;;;0.50;0.50;;;;;;;;;;5087753;28;20119;-66
2021/06/11 09:47:29;;;;;;;1.63;0.50;;;;;;;;;;5087950;28;20028;-67
2021/06/11 09:49:54;;;;;;;1.73;0.90;;;;;;;;;;5105336;28;20036;-66
2021/06/11 09:52:19;;;;;;;0.70;0.55;;;;;;;;;;5099313;28;20112;-67
2021/06/11 09:54:44;;;;;;;0.73;0.60;;;;;;;;;;5087907;28;20428;-66
2021/06/11 09:57:20;;;;;;;1.75;0.50;;;;;;;;;;5093478;28;20032;-66
2021/06/11 09:59:45;;;;;;;0.70;0.50;;;;;;;;;;5091712;28;20481;-66
2021/06/11 10:02:14;;;;;;;0.93;0.63;;;;;;;;;;5091749;28;20665;-66
2021/06/11 10:04:41;;;;;;;0.57;0.52;;;;;;;;;;5091502;28;20043;-65
2021/06/11 10:07:07;;;;;;;1.20;0.63;;;;;;;;;;5092173;28;20103;-66
2021/06/11 10:09:32;;;;;;;1.00;0.90;;;;;;;;;;5094150;28;20148;-66
2021/06/11 10:11:58;;;;;;;2.80;0.65;;;;;;;;;;5091675;28;20085;-66
2021/06/11 10:14:23;;;;;;;0.70;0.70;;;;;;;;;;5091863;28;20490;-67
2021/06/11 10:16:48;;;;;;;0.95;0.50;;;;;;;;;;5095113;28;20519;-66
2021/06/11 10:19:14;;;;;;;0.82;0.70;;;;;;;;;;5092464;28;20043;-66
2021/06/11 10:21:41;;;;;;;1.85;0.82;;;;;;;;;;5091274;28;20027;-66
2021/06/11 10:24:08;;;;;;;0.73;0.55;;;;;;;;;;5091148;28;20461;-66
2021/06/11 10:26:33;;;;;;;1.35;0.60;;;;;;;;;;5091252;28;20391;-66
2021/06/11 10:28:59;;;;;;;2.58;0.90;;;;;;;;;;5091491;28;20091;-66
2021/06/11 10:31:25;;;;;;;0.85;0.80;;;;;;;;;;5091097;28;20028;-66
2021/06/11 10:33:52;;;;;;;0.77;0.77;;;;;;;;;;5093478;28;20399;-66
2021/06/11 10:36:31;;;;;;;1.00;0.88;;;;;;;;;;5091880;28;20107;-67
2021/06/11 10:38:58;;;;;;;1.40;0.93;;;;;;;;;;5109466;28;20032;-66
2021/06/11 10:41:23;;;;;;;2.92;1.10;;;;;;;;;;5114303;28;20061;-67
2021/06/11 10:43:49;;;;;;;4.35;0.98;;;;;;;;;;5113244;28;20051;-66
2021/06/11 10:46:31;;;;;;;1.92;0.90;;;;;;;;;;5112898;28;20032;-67
2021/06/11 10:48:56;;;;;;;1.42;0.80;;;;;;;;;;5113387;28;20062;-66
2021/06/11 10:51:43;;;;;;;2.25;0.90;;;;;;;;;;5113010;28;20118;-66
2021/06/11 10:54:24;;;;;;;4.30;1.20;;;;;;;;;;5092769;28;20376;-66
2021/06/11 10:56:58;;;;;;;1.30;0.90;;;;;;;;;;5093325;28;20364;-67
2021/06/11 10:59:34;;;;;;;3.78;0.98;;;;;;;;;;5104241;28;20063;-67
2021/06/11 11:01:59;;;;;;;2.05;1.20;;;;;;;;;;5106148;28;20027;-66
2021/06/11 11:04:28;;;;;;;2.13;1.02;;;;;;;;;;5108685;28;20039;-66
2021/06/11 11:06:54;;;;;;;2.90;1.48;;;;;;;;;;5110233;28;20479;-67
2021/06/11 11:09:19;;;;;;;1.80;1.30;;;;;;;;;;5111613;28;20057;-66
2021/06/11 11:11:46;;;;;;;2.20;1.27;;;;;;;;;;5112007;28;20440;-66
2021/06/11 11:14:30;;;;;;;1.60;1.00;;;;;;;;;;5111544;28;20027;-65
2021/06/11 11:16:59;;;;;;;4.18;1.25;;;;;;;;;;5110608;28;20430;-66
2021/06/11 11:19:43;;;;;;;2.42;1.20;;;;;;;;;;5112315;28;20486;-66
2021/06/11 11:22:09;;;;;;;1.30;1.10;;;;;;;;;;5112910;28;20047;-66
2021/06/11 11:24:34;;;;;;;4.50;1.30;;;;;;;;;;5111970;28;20035;-66
2021/06/11 11:26:59;;;;;;;2.42;1.50;;;;;;;;;;5095145;28;20107;-66
2021/06/11 11:29:24;;;;;;;1.85;1.20;;;;;;;;;;5092661;28;20080;-66
2021/06/11 11:31:51;;;;;;;1.58;1.00;;;;;;;;;;5092144;28;20503;-66
2021/06/11 11:34:17;;;;;;;4.15;1.40;;;;;;;;;;5097509;28;20096;-66
2021/06/11 11:36:42;;;;;;;2.97;1.40;;;;;;;;;;5107243;28;20468;-66
2021/06/11 11:39:09;;;;;;;2.58;1.60;;;;;;;;;;5098470;28;20483;-67
2021/06/11 11:41:34;;;;;;;1.27;1.10;;;;;;;;;;5111503;28;20064;-66
2021/06/11 11:44:00;;;;;;;1.88;1.30;;;;;;;;;;5101683;28;20028;-66
2021/06/11 11:46:25;;;;;;;4.20;1.50;;;;;;;;;;5109976;28;20084;-66
2021/06/11 11:48:50;;;;;;;2.25;1.33;;;;;;;;;;5111970;28;20031;-65
2021/06/11 11:51:17;;;;;;;2.10;1.70;;;;;;;;;;5111750;28;20027;-66
2021/06/11 11:53:42;;;;;;;2.80;1.70;;;;;;;;;;5100084;28;20047;-66
2021/06/11 11:56:07;;;;;;;2.30;1.60;;;;;;;;;;5107376;28;20016;-66
2021/06/11 11:58:33;;;;;;;2.40;1.60;;;;;;;;;;5110640;28;20024;-66
2021/06/11 12:00:58;;;;;;;2.40;1.90;;;;;;;;;;5100388;28;20048;-66
2021/06/11 12:03:23;;;;;;;4.00;1.80;;;;;;;;;;5106858;28;20042;-66
2021/06/11 12:05:49;;;;;;;3.95;1.73;;;;;;;;;;5094167;28;20492;-66
2021/06/11 12:08:14;;;;;;;2.83;2.13;;;;;;;;;;5111419;28;20037;-66
2021/06/11 12:10:39;;;;;;;3.63;2.10;;;;;;;;;;5110245;28;20101;-66
2021/06/11 12:13:05;;;;;;;4.68;2.17;;;;;;;;;;5110798;28;20453;-66
2021/06/11 12:15:30;;;;;;;3.97;2.45;;;;;;;;;;5110459;28;20391;-65
2021/06/11 12:17:57;;;;;;;5.00;2.47;;;;;;;;;;5111691;28;20065;-66
2021/06/11 12:20:23;;;;;;;3.90;2.80;;;;;;;;;;5107925;28;20483;-66
2021/06/11 12:22:48;;;;;;;5.22;3.00;;;;;;;;;;5097868;28;20036;-66
2021/06/11 12:25:13;;;;;;;3.97;2.78;;;;;;;;;;5109753;28;20019;-66
2021/06/11 12:27:39;;;;;;;3.38;2.53;;;;;;;;;;5096507;28;20527;-67
2021/06/11 12:30:05;;;;;;;3.53;2.25;;;;;;;;;;5111128;28;20038;-66
2021/06/11 12:32:30;;;;;;;4.07;2.05;;;;;;;;;;5099055;28;20129;-66
2021/06/11 12:34:55;;;;;;;4.63;2.13;;;;;;;;;;5105073;28;20460;-66
2021/06/11 12:37:21;;;;;;;4.25;2.47;;;;;;;;;;5111071;28;20097;-66
2021/06/11 12:39:46;;;;;;;4.28;2.40;;;;;;;;;;5101024;28;20028;-66
2021/06/11 12:42:15;;;;;;;8.45;3.17;;;;;;;;;;5091277;28;20028;-66
2021/06/11 12:44:42;;;;;;;3.55;2.60;;;;;;;;;;5091445;28;20404;-66
2021/06/11 12:47:09;;;;;;;4.25;2.60;;;;;;;;;;5090152;28;20026;-66
2021/06/11 12:49:34;;;;;;;6.80;2.42;;;;;;;;;;5090426;28;20047;-65
2021/06/11 12:52:01;;;;;;;4.93;2.60;;;;;;;;;;5090358;28;20039;-66
2021/06/11 12:54:27;;;;;;;4.82;2.45;;;;;;;;;;5100170;28;20038;-66
2021/06/11 12:56:52;;;;;;;5.22;2.72;;;;;;;;;;5110686;28;20106;-65
2021/06/11 12:59:18;;;;;;;6.72;2.60;;;;;;;;;;5110383;28;20464;-66
2021/06/11 13:01:43;;;;;;;6.85;2.67;;;;;;;;;;5110208;28;20349;-66
2021/06/11 13:04:08;;;;;;;6.57;2.70;;;;;;;;;;5110512;28;20388;-66
2021/06/11 13:06:34;;;;;;;6.65;2.20;;;;;;;;;;5109949;28;20063;-66
2021/06/11 13:09:00;;;;;;;3.65;2.00;;;;;;;;;;5108839;28;20420;-65
2021/06/11 13:11:25;;;;;;;3.35;2.08;;;;;;;;;;5110278;28;20040;-66
2021/06/11 13:13:51;;;;;;;5.20;2.85;;;;;;;;;;5109952;28;20464;-66
2021/06/11 13:16:16;;;;;;;5.38;2.42;;;;;;;;;;5110221;28;20023;-66
2021/06/11 13:18:42;;;;;;;5.53;2.75;;;;;;;;;;5108983;28;20391;-67
2021/06/11 13:21:07;;;;;;;5.88;2.85;;;;;;;;;;5108497;28;20039;-66
2021/06/11 13:23:33;;;;;;;4.95;2.40;;;;;;;;;;5110512;28;20030;-66
2021/06/11 13:25:58;;;;;;;3.90;2.28;;;;;;;;;;5110995;28;20076;-66
2021/06/11 13:28:23;;;;;;;5.35;2.72;;;;;;;;;;5109998;28;20110;-66
2021/06/11 13:30:49;;;;;;;5.13;2.10;;;;;;;;;;5110166;28;20080;-66
2021/06/11 13:33:14;;;;;;;3.40;2.40;;;;;;;;;;5110034;28;20088;-67
2021/06/11 13:35:40;;;;;;;7.55;3.08;;;;;;;;;;5109325;28;20076;-65
2021/06/11 13:38:06;;;;;;;6.38;3.00;;;;;;;;;;5110602;28;20106;-66
2021/06/11 13:40:31;;;;;;;5.22;2.55;;;;;;;;;;5107694;28;20023;-66
2021/06/11 13:42:57;;;;;;;4.05;2.05;;;;;;;;;;5103604;28;20023;-66
2021/06/11 13:45:22;;;;;;;5.82;2.70;;;;;;;;;;5097927;28;20020;-65
2021/06/11 13:47:48;;;;;;;2.90;2.10;;;;;;;;;;5106243;28;20023;-65
2021/06/11 13:50:14;;;;;;;2.95;2.03;;;;;;;;;;5108831;28;20119;-66
2021/06/11 13:52:40;;;;;;;4.97;2.45;;;;;;;;;;5100137;28;20062;-66
2021/06/11 13:55:06;;;;;;;10.82;2.50;;;;;;;;;;5089893;28;20125;-67
2021/06/11 13:57:31;;;;;;;4.63;2.42;;;;;;;;;;5089923;28;20047;-66
2021/06/11 13:59:56;;;;;;;5.30;2.80;;;;;;;;;;5105151;28;20020;-66
2021/06/11 14:02:22;;;;;;;4.63;2.58;;;;;;;;;;5106994;28;20409;-65
2021/06/11 14:04:47;;;;;;;5.28;2.58;;;;;;;;;;5084503;28;20089;-66
2021/06/11 14:07:12;;;;;;;4.55;2.40;;;;;;;;;;5094206;28;20460;-66
2021/06/11 14:09:38;;;;;;;3.47;2.25;;;;;;;;;;5104441;28;20089;-66
2021/06/11 14:12:04;;;;;;;3.78;2.72;;;;;;;;;;5101757;28;20039;-66
2021/06/11 14:14:29;;;;;;;3.55;2.38;;;;;;;;;;5110085;28;20478;-66
2021/06/11 14:16:55;;;;;;;4.57;2.40;;;;;;;;;;5094902;28;20089;-66
2021/06/11 14:19:20;;;;;;;4.20;2.67;;;;;;;;;;5095984;28;20131;-66
2021/06/11 14:21:46;;;;;;;5.40;2.53;;;;;;;;;;5103167;28;20019;-66
2021/06/11 14:24:12;;;;;;;4.82;2.70;;;;;;;;;;5109432;28;20088;-66
2021/06/11 14:26:38;;;;;;;6.10;2.72;;;;;;;;;;5109038;28;20046;-66
2021/06/11 14:29:03;;;;;;;3.97;2.35;;;;;;;;;;5108941;28;20031;-66
2021/06/11 14:31:28;;;;;;;5.20;2.78;;;;;;;;;;5109745;28;20031;-66
2021/06/11 14:33:53;;;;;;;3.88;2.13;;;;;;;;;;5105362;28;20039;-66
2021/06/11 14:36:19;;;;;;;5.63;2.60;;;;;;;;;;5089472;28;20047;-66
2021/06/11 14:38:44;;;;;;;3.00;2.25;;;;;;;;;;5089539;28;20024;-66
2021/06/11 14:41:09;;;;;;;4.05;2.40;;;;;;;;;;5095012;28;20479;-66